sensor_id;sensor_type;location;lat;lon;timestamp;P1;durP1;ratioP1;P2;durP2;ratioP2
7497;SDS011;3790;48.806;9.140;2023-02-11T00:02:14;13.27;;;10.10;;
7497;SDS011;3790;48.806;9.140;2023-02-11T00:07:15;18.00;;;10.10;;
7497;SDS011;3790;48.806;9.140;2023-02-11T00:12:15;15.10;;;10.50;;
7497;SDS011;3790;48.806;9.140;2023-02-11T00:17:18;24.47;;;11.13;;
7497;SDS011;3790;48.806;9.140;2023-02-11T00:22:19;15.60;;;10.27;;
7497;SDS011;3790;48.806;9.140;2023-02-11T00:27:19;20.07;;;11.90;;
7497;SDS011;3790;48.806;9.140;2023-02-11T00:32:20;22.30;;;13.67;;
7497;SDS011;3790;48.806;9.140;2023-02-11T00:37:21;19.43;;;12.90;;
7497;SDS011;3790;48.806;9.140;2023-02-11T00:42:21;21.87;;;12.80;;
7497;SDS011;3790;48.806;9.140;2023-02-11T00:47:22;18.27;;;11.83;;
7497;SDS011;3790;48.806;9.140;2023-02-11T00:52:22;20.93;;;12.37;;
7497;SDS011;3790;48.806;9.140;2023-02-11T00:57:23;20.43;;;13.47;;
7497;SDS011;3790;48.806;9.140;2023-02-11T01:02:23;22.47;;;12.53;;
7497;SDS011;3790;48.806;9.140;2023-02-11T01:07:24;19.47;;;12.07;;
7497;SDS011;3790;48.806;9.140;2023-02-11T01:12:25;19.43;;;11.47;;
7497;SDS011;3790;48.806;9.140;2023-02-11T01:17:26;18.83;;;10.70;;
7497;SDS011;3790;48.806;9.140;2023-02-11T01:22:26;18.70;;;11.07;;
7497;SDS011;3790;48.806;9.140;2023-02-11T01:27:27;20.90;;;11.30;;
7497;SDS011;3790;48.806;9.140;2023-02-11T01:32:27;19.37;;;11.20;;
7497;SDS011;3790;48.806;9.140;2023-02-11T01:37:28;20.03;;;10.80;;
7497;SDS011;3790;48.806;9.140;2023-02-11T01:42:28;20.13;;;10.67;;
7497;SDS011;3790;48.806;9.140;2023-02-11T01:47:29;18.87;;;10.90;;
7497;SDS011;3790;48.806;9.140;2023-02-11T01:52:31;19.23;;;9.97;;
7497;SDS011;3790;48.806;9.140;2023-02-11T01:57:35;17.90;;;9.93;;
7497;SDS011;3790;48.806;9.140;2023-02-11T02:13:13;14.43;;;10.23;;
7497;SDS011;3790;48.806;9.140;2023-02-11T02:24:07;20.67;;;12.43;;
7497;SDS011;3790;48.806;9.140;2023-02-11T02:35:06;18.07;;;9.97;;
7497;SDS011;3790;48.806;9.140;2023-02-11T02:40:30;16.90;;;10.90;;
7497;SDS011;3790;48.806;9.140;2023-02-11T02:45:35;18.77;;;10.83;;
7497;SDS011;3790;48.806;9.140;2023-02-11T02:50:36;17.03;;;10.23;;
7497;SDS011;3790;48.806;9.140;2023-02-11T02:55:45;13.03;;;8.93;;
7497;SDS011;3790;48.806;9.140;2023-02-11T03:00:58;14.83;;;8.80;;
7497;SDS011;3790;48.806;9.140;2023-02-11T03:06:16;14.03;;;7.83;;
7497;SDS011;3790;48.806;9.140;2023-02-11T03:11:26;16.47;;;9.20;;
7497;SDS011;3790;48.806;9.140;2023-02-11T03:16:27;14.47;;;9.10;;
7497;SDS011;3790;48.806;9.140;2023-02-11T03:21:34;14.40;;;9.27;;
7497;SDS011;3790;48.806;9.140;2023-02-11T03:26:57;13.90;;;9.53;;
7497;SDS011;3790;48.806;9.140;2023-02-11T03:32:32;15.50;;;9.13;;
7497;SDS011;3790;48.806;9.140;2023-02-11T03:37:38;14.30;;;8.57;;
7497;SDS011;3790;48.806;9.140;2023-02-11T03:42:51;15.10;;;9.00;;
7497;SDS011;3790;48.806;9.140;2023-02-11T03:47:58;13.50;;;9.30;;
7497;SDS011;3790;48.806;9.140;2023-02-11T03:53:01;19.70;;;9.97;;
7497;SDS011;3790;48.806;9.140;2023-02-11T03:58:03;10.33;;;7.70;;
7497;SDS011;3790;48.806;9.140;2023-02-11T04:03:04;15.27;;;9.83;;
7497;SDS011;3790;48.806;9.140;2023-02-11T04:08:06;14.07;;;8.50;;
7497;SDS011;3790;48.806;9.140;2023-02-11T04:13:06;13.17;;;7.80;;
7497;SDS011;3790;48.806;9.140;2023-02-11T04:18:07;13.13;;;7.97;;
7497;SDS011;3790;48.806;9.140;2023-02-11T04:23:07;15.20;;;8.73;;
7497;SDS011;3790;48.806;9.140;2023-02-11T04:28:09;15.10;;;8.00;;
7497;SDS011;3790;48.806;9.140;2023-02-11T04:33:09;14.60;;;9.40;;
7497;SDS011;3790;48.806;9.140;2023-02-11T04:38:10;13.77;;;9.33;;
7497;SDS011;3790;48.806;9.140;2023-02-11T04:43:10;15.47;;;9.47;;
7497;SDS011;3790;48.806;9.140;2023-02-11T04:48:11;15.93;;;9.27;;
7497;SDS011;3790;48.806;9.140;2023-02-11T04:53:11;13.70;;;8.57;;
7497;SDS011;3790;48.806;9.140;2023-02-11T04:58:12;13.37;;;8.33;;
7497;SDS011;3790;48.806;9.140;2023-02-11T05:03:12;15.37;;;8.97;;
7497;SDS011;3790;48.806;9.140;2023-02-11T05:08:13;14.47;;;8.90;;
7497;SDS011;3790;48.806;9.140;2023-02-11T05:13:13;15.57;;;8.50;;
7497;SDS011;3790;48.806;9.140;2023-02-11T05:18:14;15.37;;;8.17;;
7497;SDS011;3790;48.806;9.140;2023-02-11T05:23:14;17.90;;;8.73;;
7497;SDS011;3790;48.806;9.140;2023-02-11T05:28:15;15.30;;;8.70;;
7497;SDS011;3790;48.806;9.140;2023-02-11T05:33:15;17.57;;;9.30;;
7497;SDS011;3790;48.806;9.140;2023-02-11T05:38:16;14.30;;;9.53;;
7497;SDS011;3790;48.806;9.140;2023-02-11T05:43:16;11.03;;;7.53;;
7497;SDS011;3790;48.806;9.140;2023-02-11T05:48:17;14.80;;;9.40;;
7497;SDS011;3790;48.806;9.140;2023-02-11T05:53:17;13.27;;;8.73;;
7497;SDS011;3790;48.806;9.140;2023-02-11T05:58:18;16.13;;;9.50;;
7497;SDS011;3790;48.806;9.140;2023-02-11T06:03:19;13.10;;;9.50;;
7497;SDS011;3790;48.806;9.140;2023-02-11T06:08:19;13.73;;;9.00;;
7497;SDS011;3790;48.806;9.140;2023-02-11T06:13:20;13.57;;;8.70;;
7497;SDS011;3790;48.806;9.140;2023-02-11T06:18:20;14.93;;;9.23;;
7497;SDS011;3790;48.806;9.140;2023-02-11T06:23:21;18.67;;;10.57;;
7497;SDS011;3790;48.806;9.140;2023-02-11T06:28:21;14.60;;;9.73;;
7497;SDS011;3790;48.806;9.140;2023-02-11T06:33:22;16.43;;;9.93;;
7497;SDS011;3790;48.806;9.140;2023-02-11T06:38:22;15.17;;;9.53;;
7497;SDS011;3790;48.806;9.140;2023-02-11T06:43:23;14.30;;;9.00;;
7497;SDS011;3790;48.806;9.140;2023-02-11T06:48:23;19.23;;;9.80;;
7497;SDS011;3790;48.806;9.140;2023-02-11T06:53:24;18.00;;;9.70;;
7497;SDS011;3790;48.806;9.140;2023-02-11T06:58:24;15.03;;;10.40;;
7497;SDS011;3790;48.806;9.140;2023-02-11T07:03:25;13.67;;;8.83;;
7497;SDS011;3790;48.806;9.140;2023-02-11T07:08:26;13.83;;;9.00;;
7497;SDS011;3790;48.806;9.140;2023-02-11T07:13:26;13.87;;;8.37;;
7497;SDS011;3790;48.806;9.140;2023-02-11T07:18:27;20.17;;;8.70;;
7497;SDS011;3790;48.806;9.140;2023-02-11T07:23:27;14.27;;;9.13;;
7497;SDS011;3790;48.806;9.140;2023-02-11T07:28:28;15.67;;;9.47;;
7497;SDS011;3790;48.806;9.140;2023-02-11T07:33:28;16.97;;;10.30;;
7497;SDS011;3790;48.806;9.140;2023-02-11T07:38:29;18.57;;;11.27;;
7497;SDS011;3790;48.806;9.140;2023-02-11T07:43:31;16.43;;;10.80;;
7497;SDS011;3790;48.806;9.140;2023-02-11T07:48:33;15.07;;;9.80;;
7497;SDS011;3790;48.806;9.140;2023-02-11T07:53:34;16.60;;;8.93;;
7497;SDS011;3790;48.806;9.140;2023-02-11T07:58:35;12.67;;;9.30;;
7497;SDS011;3790;48.806;9.140;2023-02-11T08:03:36;12.13;;;8.53;;
7497;SDS011;3790;48.806;9.140;2023-02-11T08:08:37;11.97;;;8.20;;
7497;SDS011;3790;48.806;9.140;2023-02-11T08:13:38;10.40;;;7.47;;
7497;SDS011;3790;48.806;9.140;2023-02-11T08:18:39;11.27;;;7.80;;
7497;SDS011;3790;48.806;9.140;2023-02-11T08:23:40;11.30;;;7.23;;
7497;SDS011;3790;48.806;9.140;2023-02-11T08:28:42;11.70;;;7.60;;
7497;SDS011;3790;48.806;9.140;2023-02-11T08:33:44;8.77;;;5.83;;
7497;SDS011;3790;48.806;9.140;2023-02-11T08:38:45;12.03;;;8.47;;
7497;SDS011;3790;48.806;9.140;2023-02-11T08:43:46;9.57;;;6.17;;
7497;SDS011;3790;48.806;9.140;2023-02-11T08:48:46;9.87;;;6.67;;
7497;SDS011;3790;48.806;9.140;2023-02-11T08:53:47;12.57;;;7.63;;
7497;SDS011;3790;48.806;9.140;2023-02-11T08:58:49;12.30;;;7.97;;
7497;SDS011;3790;48.806;9.140;2023-02-11T09:03:50;9.90;;;7.67;;
7497;SDS011;3790;48.806;9.140;2023-02-11T09:08:53;13.63;;;8.73;;
7497;SDS011;3790;48.806;9.140;2023-02-11T09:13:54;15.23;;;9.90;;
7497;SDS011;3790;48.806;9.140;2023-02-11T09:18:56;14.03;;;10.37;;
7497;SDS011;3790;48.806;9.140;2023-02-11T09:23:58;12.30;;;9.50;;
7497;SDS011;3790;48.806;9.140;2023-02-11T09:28:59;15.97;;;10.37;;
7497;SDS011;3790;48.806;9.140;2023-02-11T09:34:01;13.93;;;8.67;;
7497;SDS011;3790;48.806;9.140;2023-02-11T09:39:04;12.93;;;8.90;;
7497;SDS011;3790;48.806;9.140;2023-02-11T09:44:07;10.27;;;6.90;;
7497;SDS011;3790;48.806;9.140;2023-02-11T09:49:30;10.87;;;6.93;;
7497;SDS011;3790;48.806;9.140;2023-02-11T09:54:54;7.13;;;5.07;;
7497;SDS011;3790;48.806;9.140;2023-02-11T09:59:56;15.00;;;8.20;;
7497;SDS011;3790;48.806;9.140;2023-02-11T10:05:18;10.20;;;7.60;;
7497;SDS011;3790;48.806;9.140;2023-02-11T10:10:43;12.07;;;8.17;;
7497;SDS011;3790;48.806;9.140;2023-02-11T10:21:25;12.37;;;8.13;;
7497;SDS011;3790;48.806;9.140;2023-02-11T10:26:43;9.00;;;7.63;;
7497;SDS011;3790;48.806;9.140;2023-02-11T10:31:44;9.37;;;6.43;;
7497;SDS011;3790;48.806;9.140;2023-02-11T10:36:46;8.63;;;5.83;;
7497;SDS011;3790;48.806;9.140;2023-02-11T10:41:49;9.97;;;6.97;;
7497;SDS011;3790;48.806;9.140;2023-02-11T10:46:54;4.67;;;2.97;;
7497;SDS011;3790;48.806;9.140;2023-02-11T10:52:10;6.77;;;3.17;;
7497;SDS011;3790;48.806;9.140;2023-02-11T10:57:17;6.03;;;3.20;;
7497;SDS011;3790;48.806;9.140;2023-02-11T11:02:20;5.93;;;2.90;;
7497;SDS011;3790;48.806;9.140;2023-02-11T11:07:24;5.23;;;2.53;;
7497;SDS011;3790;48.806;9.140;2023-02-11T11:12:28;6.73;;;3.10;;
7497;SDS011;3790;48.806;9.140;2023-02-11T11:17:35;4.00;;;2.20;;
7497;SDS011;3790;48.806;9.140;2023-02-11T11:22:36;5.43;;;2.80;;
7497;SDS011;3790;48.806;9.140;2023-02-11T11:27:38;5.03;;;2.97;;
7497;SDS011;3790;48.806;9.140;2023-02-11T11:32:38;7.63;;;3.20;;
7497;SDS011;3790;48.806;9.140;2023-02-11T11:37:41;3.27;;;2.33;;
7497;SDS011;3790;48.806;9.140;2023-02-11T11:42:42;5.10;;;2.50;;
7497;SDS011;3790;48.806;9.140;2023-02-11T11:58:28;7.13;;;2.80;;
7497;SDS011;3790;48.806;9.140;2023-02-11T12:24:59;4.53;;;3.63;;
7497;SDS011;3790;48.806;9.140;2023-02-11T12:35:58;6.30;;;3.20;;
7497;SDS011;3790;48.806;9.140;2023-02-11T12:41:03;5.63;;;3.33;;
7497;SDS011;3790;48.806;9.140;2023-02-11T12:51:44;4.30;;;2.90;;
7497;SDS011;3790;48.806;9.140;2023-02-11T13:02:38;6.30;;;4.03;;
7497;SDS011;3790;48.806;9.140;2023-02-11T13:08:04;8.27;;;4.00;;
7497;SDS011;3790;48.806;9.140;2023-02-11T13:13:28;12.67;;;5.03;;
7497;SDS011;3790;48.806;9.140;2023-02-11T13:33:53;11.60;;;8.10;;
7497;SDS011;3790;48.806;9.140;2023-02-11T13:38:55;10.63;;;6.90;;
7497;SDS011;3790;48.806;9.140;2023-02-11T13:49:16;15.60;;;7.83;;
7497;SDS011;3790;48.806;9.140;2023-02-11T13:54:27;10.23;;;7.10;;
7497;SDS011;3790;48.806;9.140;2023-02-11T14:15:44;10.83;;;7.37;;
7497;SDS011;3790;48.806;9.140;2023-02-11T14:20:45;8.23;;;6.57;;
7497;SDS011;3790;48.806;9.140;2023-02-11T14:25:51;8.13;;;6.93;;
7497;SDS011;3790;48.806;9.140;2023-02-11T14:31:02;7.47;;;5.50;;
7497;SDS011;3790;48.806;9.140;2023-02-11T14:41:45;9.63;;;6.07;;
7497;SDS011;3790;48.806;9.140;2023-02-11T14:46:50;10.00;;;5.33;;
7497;SDS011;3790;48.806;9.140;2023-02-11T14:51:53;9.07;;;5.90;;
7497;SDS011;3790;48.806;9.140;2023-02-11T15:02:20;7.67;;;6.37;;
7497;SDS011;3790;48.806;9.140;2023-02-11T15:07:22;9.03;;;6.40;;
7497;SDS011;3790;48.806;9.140;2023-02-11T15:12:24;11.57;;;6.70;;
7497;SDS011;3790;48.806;9.140;2023-02-11T15:17:28;7.80;;;6.53;;
7497;SDS011;3790;48.806;9.140;2023-02-11T15:22:31;11.60;;;7.13;;
7497;SDS011;3790;48.806;9.140;2023-02-11T15:27:42;10.20;;;6.73;;
7497;SDS011;3790;48.806;9.140;2023-02-11T15:32:44;10.73;;;6.77;;
7497;SDS011;3790;48.806;9.140;2023-02-11T15:37:49;8.97;;;7.17;;
7497;SDS011;3790;48.806;9.140;2023-02-11T15:47:58;8.77;;;6.63;;
7497;SDS011;3790;48.806;9.140;2023-02-11T15:53:19;9.60;;;7.30;;
7497;SDS011;3790;48.806;9.140;2023-02-11T15:58:34;12.23;;;7.33;;
7497;SDS011;3790;48.806;9.140;2023-02-11T16:03:36;10.77;;;7.27;;
7497;SDS011;3790;48.806;9.140;2023-02-11T16:08:37;10.07;;;7.57;;
7497;SDS011;3790;48.806;9.140;2023-02-11T16:13:44;14.60;;;8.43;;
7497;SDS011;3790;48.806;9.140;2023-02-11T16:18:50;10.47;;;7.57;;
7497;SDS011;3790;48.806;9.140;2023-02-11T16:23:52;11.73;;;7.83;;
7497;SDS011;3790;48.806;9.140;2023-02-11T16:29:02;12.20;;;7.87;;
7497;SDS011;3790;48.806;9.140;2023-02-11T16:39:20;10.57;;;7.97;;
7497;SDS011;3790;48.806;9.140;2023-02-11T16:44:21;9.23;;;7.67;;
7497;SDS011;3790;48.806;9.140;2023-02-11T16:49:24;10.77;;;7.93;;
7497;SDS011;3790;48.806;9.140;2023-02-11T16:54:37;10.57;;;7.83;;
7497;SDS011;3790;48.806;9.140;2023-02-11T16:59:38;12.97;;;8.70;;
7497;SDS011;3790;48.806;9.140;2023-02-11T17:04:38;11.83;;;8.67;;
7497;SDS011;3790;48.806;9.140;2023-02-11T17:09:39;14.23;;;8.20;;
7497;SDS011;3790;48.806;9.140;2023-02-11T17:14:39;9.70;;;8.70;;
7497;SDS011;3790;48.806;9.140;2023-02-11T17:19:40;11.67;;;8.77;;
7497;SDS011;3790;48.806;9.140;2023-02-11T17:24:40;14.03;;;9.20;;
7497;SDS011;3790;48.806;9.140;2023-02-11T17:29:41;15.93;;;9.93;;
7497;SDS011;3790;48.806;9.140;2023-02-11T17:34:42;12.13;;;9.13;;
7497;SDS011;3790;48.806;9.140;2023-02-11T17:39:42;11.07;;;9.37;;
7497;SDS011;3790;48.806;9.140;2023-02-11T17:44:43;14.37;;;9.93;;
7497;SDS011;3790;48.806;9.140;2023-02-11T17:49:44;12.53;;;9.67;;
7497;SDS011;3790;48.806;9.140;2023-02-11T17:54:44;12.27;;;8.93;;
7497;SDS011;3790;48.806;9.140;2023-02-11T17:59:47;10.47;;;8.43;;
7497;SDS011;3790;48.806;9.140;2023-02-11T18:04:48;12.33;;;9.67;;
7497;SDS011;3790;48.806;9.140;2023-02-11T18:09:49;12.77;;;10.33;;
7497;SDS011;3790;48.806;9.140;2023-02-11T18:14:50;13.83;;;10.93;;
7497;SDS011;3790;48.806;9.140;2023-02-11T18:19:55;12.27;;;9.57;;
7497;SDS011;3790;48.806;9.140;2023-02-11T18:24:56;13.97;;;8.83;;
7497;SDS011;3790;48.806;9.140;2023-02-11T18:29:57;14.43;;;10.40;;
7497;SDS011;3790;48.806;9.140;2023-02-11T18:34:58;14.53;;;9.93;;
7497;SDS011;3790;48.806;9.140;2023-02-11T18:39:58;15.40;;;10.73;;
7497;SDS011;3790;48.806;9.140;2023-02-11T18:44:59;12.70;;;9.40;;
7497;SDS011;3790;48.806;9.140;2023-02-11T18:49:59;13.37;;;9.70;;
7497;SDS011;3790;48.806;9.140;2023-02-11T18:55:00;12.73;;;10.37;;
7497;SDS011;3790;48.806;9.140;2023-02-11T19:00:00;15.87;;;11.10;;
7497;SDS011;3790;48.806;9.140;2023-02-11T19:05:02;13.33;;;9.63;;
7497;SDS011;3790;48.806;9.140;2023-02-11T19:10:05;14.53;;;10.23;;
7497;SDS011;3790;48.806;9.140;2023-02-11T19:15:07;11.67;;;8.67;;
7497;SDS011;3790;48.806;9.140;2023-02-11T19:20:08;11.93;;;9.17;;
7497;SDS011;3790;48.806;9.140;2023-02-11T19:25:09;13.40;;;9.90;;
7497;SDS011;3790;48.806;9.140;2023-02-11T19:30:11;11.37;;;8.73;;
7497;SDS011;3790;48.806;9.140;2023-02-11T19:35:11;15.23;;;9.97;;
7497;SDS011;3790;48.806;9.140;2023-02-11T19:40:12;11.83;;;9.23;;
7497;SDS011;3790;48.806;9.140;2023-02-11T19:45:14;13.57;;;9.13;;
7497;SDS011;3790;48.806;9.140;2023-02-11T19:50:15;14.43;;;9.73;;
7497;SDS011;3790;48.806;9.140;2023-02-11T19:55:15;12.57;;;9.67;;
7497;SDS011;3790;48.806;9.140;2023-02-11T20:00:16;20.63;;;11.07;;
7497;SDS011;3790;48.806;9.140;2023-02-11T20:05:17;10.93;;;9.77;;
7497;SDS011;3790;48.806;9.140;2023-02-11T20:10:17;12.07;;;9.60;;
7497;SDS011;3790;48.806;9.140;2023-02-11T20:15:18;11.53;;;9.33;;
7497;SDS011;3790;48.806;9.140;2023-02-11T20:20:18;14.50;;;10.57;;
7497;SDS011;3790;48.806;9.140;2023-02-11T20:25:19;15.03;;;10.27;;
7497;SDS011;3790;48.806;9.140;2023-02-11T20:30:19;12.70;;;10.60;;
7497;SDS011;3790;48.806;9.140;2023-02-11T20:35:20;20.47;;;15.07;;
7497;SDS011;3790;48.806;9.140;2023-02-11T20:40:21;15.70;;;10.70;;
7497;SDS011;3790;48.806;9.140;2023-02-11T20:45:21;14.53;;;10.17;;
7497;SDS011;3790;48.806;9.140;2023-02-11T20:50:22;16.83;;;9.40;;
7497;SDS011;3790;48.806;9.140;2023-02-11T20:55:22;15.17;;;10.37;;
7497;SDS011;3790;48.806;9.140;2023-02-11T21:00:25;14.73;;;10.80;;
7497;SDS011;3790;48.806;9.140;2023-02-11T21:05:25;16.00;;;10.30;;
7497;SDS011;3790;48.806;9.140;2023-02-11T21:10:26;13.90;;;10.17;;
7497;SDS011;3790;48.806;9.140;2023-02-11T21:15:27;16.40;;;10.63;;
7497;SDS011;3790;48.806;9.140;2023-02-11T21:20:28;14.13;;;10.50;;
7497;SDS011;3790;48.806;9.140;2023-02-11T21:25:29;12.83;;;10.90;;
7497;SDS011;3790;48.806;9.140;2023-02-11T21:30:29;15.27;;;9.97;;
7497;SDS011;3790;48.806;9.140;2023-02-11T21:35:30;16.87;;;11.13;;
7497;SDS011;3790;48.806;9.140;2023-02-11T21:40:32;20.67;;;11.27;;
7497;SDS011;3790;48.806;9.140;2023-02-11T21:45:32;19.73;;;12.90;;
7497;SDS011;3790;48.806;9.140;2023-02-11T21:50:33;13.50;;;10.83;;
7497;SDS011;3790;48.806;9.140;2023-02-11T21:55:40;13.57;;;11.00;;
7497;SDS011;3790;48.806;9.140;2023-02-11T22:00:40;13.33;;;10.97;;
7497;SDS011;3790;48.806;9.140;2023-02-11T22:05:41;15.90;;;11.03;;
7497;SDS011;3790;48.806;9.140;2023-02-11T22:10:41;12.30;;;10.57;;
7497;SDS011;3790;48.806;9.140;2023-02-11T22:15:42;17.87;;;10.73;;
7497;SDS011;3790;48.806;9.140;2023-02-11T22:20:42;15.50;;;10.67;;
7497;SDS011;3790;48.806;9.140;2023-02-11T22:25:43;19.93;;;12.30;;
7497;SDS011;3790;48.806;9.140;2023-02-11T22:30:43;19.23;;;12.27;;
7497;SDS011;3790;48.806;9.140;2023-02-11T22:35:44;16.23;;;11.83;;
7497;SDS011;3790;48.806;9.140;2023-02-11T22:40:44;15.27;;;11.40;;
7497;SDS011;3790;48.806;9.140;2023-02-11T22:45:45;16.67;;;12.30;;
7497;SDS011;3790;48.806;9.140;2023-02-11T22:50:45;16.80;;;11.97;;
7497;SDS011;3790;48.806;9.140;2023-02-11T22:55:46;16.37;;;12.33;;
7497;SDS011;3790;48.806;9.140;2023-02-11T23:00:46;18.00;;;11.53;;
7497;SDS011;3790;48.806;9.140;2023-02-11T23:05:47;18.17;;;11.70;;
7497;SDS011;3790;48.806;9.140;2023-02-11T23:10:47;16.30;;;11.03;;
7497;SDS011;3790;48.806;9.140;2023-02-11T23:15:48;12.70;;;10.50;;
7497;SDS011;3790;48.806;9.140;2023-02-11T23:20:48;14.07;;;10.13;;
7497;SDS011;3790;48.806;9.140;2023-02-11T23:25:49;16.70;;;11.67;;
7497;SDS011;3790;48.806;9.140;2023-02-11T23:30:49;14.47;;;10.80;;
7497;SDS011;3790;48.806;9.140;2023-02-11T23:35:50;16.70;;;11.33;;
7497;SDS011;3790;48.806;9.140;2023-02-11T23:40:50;12.33;;;9.80;;
7497;SDS011;3790;48.806;9.140;2023-02-11T23:45:51;20.17;;;12.07;;
7497;SDS011;3790;48.806;9.140;2023-02-11T23:50:51;14.30;;;11.00;;
7497;SDS011;3790;48.806;9.140;2023-02-11T23:55:52;18.10;;;10.67;;
